sensor_id;sensor_type;location;lat;lon;timestamp;P1;durP1;ratioP1;P2;durP2;ratioP2
17696;SDS011;8967;47.984;7.842;2022-12-18T00:02:15;35.10;;;13.03;;
17696;SDS011;8967;47.984;7.842;2022-12-18T00:04:44;31.93;;;14.33;;
17696;SDS011;8967;47.984;7.842;2022-12-18T00:07:11;34.73;;;13.97;;
17696;SDS011;8967;47.984;7.842;2022-12-18T00:09:38;31.73;;;12.83;;
17696;SDS011;8967;47.984;7.842;2022-12-18T00:12:05;28.00;;;12.17;;
17696;SDS011;8967;47.984;7.842;2022-12-18T00:14:34;28.30;;;11.93;;
17696;SDS011;8967;47.984;7.842;2022-12-18T00:17:01;32.07;;;13.20;;
17696;SDS011;8967;47.984;7.842;2022-12-18T00:19:28;30.43;;;13.13;;
17696;SDS011;8967;47.984;7.842;2022-12-18T00:21:55;30.63;;;12.57;;
17696;SDS011;8967;47.984;7.842;2022-12-18T00:24:23;30.13;;;12.87;;
17696;SDS011;8967;47.984;7.842;2022-12-18T00:26:50;32.47;;;13.27;;
17696;SDS011;8967;47.984;7.842;2022-12-18T00:29:19;32.40;;;12.23;;
17696;SDS011;8967;47.984;7.842;2022-12-18T00:31:48;25.47;;;11.67;;
17696;SDS011;8967;47.984;7.842;2022-12-18T00:34:15;27.20;;;12.07;;
17696;SDS011;8967;47.984;7.842;2022-12-18T00:36:43;25.37;;;12.03;;
17696;SDS011;8967;47.984;7.842;2022-12-18T00:39:11;25.30;;;10.70;;
17696;SDS011;8967;47.984;7.842;2022-12-18T00:41:38;29.13;;;12.43;;
17696;SDS011;8967;47.984;7.842;2022-12-18T00:44:24;25.83;;;11.37;;
17696;SDS011;8967;47.984;7.842;2022-12-18T00:46:52;29.60;;;11.60;;
17696;SDS011;8967;47.984;7.842;2022-12-18T00:49:20;27.97;;;11.63;;
17696;SDS011;8967;47.984;7.842;2022-12-18T00:51:50;29.70;;;12.23;;
17696;SDS011;8967;47.984;7.842;2022-12-18T00:54:17;29.40;;;12.17;;
17696;SDS011;8967;47.984;7.842;2022-12-18T00:56:46;29.37;;;12.47;;
17696;SDS011;8967;47.984;7.842;2022-12-18T00:59:13;28.43;;;11.53;;
17696;SDS011;8967;47.984;7.842;2022-12-18T01:01:40;27.97;;;11.73;;
17696;SDS011;8967;47.984;7.842;2022-12-18T01:04:11;30.53;;;12.40;;
17696;SDS011;8967;47.984;7.842;2022-12-18T01:06:38;27.97;;;11.23;;
17696;SDS011;8967;47.984;7.842;2022-12-18T01:09:05;26.30;;;11.47;;
17696;SDS011;8967;47.984;7.842;2022-12-18T01:11:35;24.77;;;11.23;;
17696;SDS011;8967;47.984;7.842;2022-12-18T01:14:03;32.07;;;11.80;;
17696;SDS011;8967;47.984;7.842;2022-12-18T01:16:30;26.57;;;11.03;;
17696;SDS011;8967;47.984;7.842;2022-12-18T01:18:57;27.40;;;10.80;;
17696;SDS011;8967;47.984;7.842;2022-12-18T01:21:27;26.97;;;10.90;;
17696;SDS011;8967;47.984;7.842;2022-12-18T01:23:55;28.10;;;11.10;;
17696;SDS011;8967;47.984;7.842;2022-12-18T01:26:23;29.33;;;11.27;;
17696;SDS011;8967;47.984;7.842;2022-12-18T01:28:53;29.70;;;12.10;;
17696;SDS011;8967;47.984;7.842;2022-12-18T01:31:24;22.67;;;10.80;;
17696;SDS011;8967;47.984;7.842;2022-12-18T01:33:53;23.97;;;11.70;;
17696;SDS011;8967;47.984;7.842;2022-12-18T01:36:21;35.70;;;12.10;;
17696;SDS011;8967;47.984;7.842;2022-12-18T01:38:51;28.93;;;12.13;;
17696;SDS011;8967;47.984;7.842;2022-12-18T01:41:19;27.50;;;11.53;;
17696;SDS011;8967;47.984;7.842;2022-12-18T01:43:49;26.00;;;11.13;;
17696;SDS011;8967;47.984;7.842;2022-12-18T01:46:20;23.27;;;10.40;;
17696;SDS011;8967;47.984;7.842;2022-12-18T01:48:55;25.43;;;10.97;;
17696;SDS011;8967;47.984;7.842;2022-12-18T01:51:25;28.73;;;12.07;;
17696;SDS011;8967;47.984;7.842;2022-12-18T01:53:56;31.87;;;10.93;;
17696;SDS011;8967;47.984;7.842;2022-12-18T01:56:24;28.07;;;12.13;;
17696;SDS011;8967;47.984;7.842;2022-12-18T01:58:54;24.47;;;10.67;;
17696;SDS011;8967;47.984;7.842;2022-12-18T02:01:24;24.17;;;10.27;;
17696;SDS011;8967;47.984;7.842;2022-12-18T02:03:54;27.70;;;11.33;;
17696;SDS011;8967;47.984;7.842;2022-12-18T02:06:21;27.80;;;12.00;;
17696;SDS011;8967;47.984;7.842;2022-12-18T02:09:00;28.07;;;12.03;;
17696;SDS011;8967;47.984;7.842;2022-12-18T02:11:36;28.37;;;11.00;;
17696;SDS011;8967;47.984;7.842;2022-12-18T02:14:16;27.17;;;11.67;;
17696;SDS011;8967;47.984;7.842;2022-12-18T02:16:50;27.27;;;12.10;;
17696;SDS011;8967;47.984;7.842;2022-12-18T02:19:26;26.77;;;10.87;;
17696;SDS011;8967;47.984;7.842;2022-12-18T02:22:13;30.43;;;12.37;;
17696;SDS011;8967;47.984;7.842;2022-12-18T02:24:57;26.50;;;11.93;;
17696;SDS011;8967;47.984;7.842;2022-12-18T02:27:33;27.13;;;10.97;;
17696;SDS011;8967;47.984;7.842;2022-12-18T02:30:03;24.37;;;11.27;;
17696;SDS011;8967;47.984;7.842;2022-12-18T02:32:34;27.57;;;12.27;;
17696;SDS011;8967;47.984;7.842;2022-12-18T02:35:04;26.13;;;11.40;;
17696;SDS011;8967;47.984;7.842;2022-12-18T02:37:37;25.20;;;11.13;;
17696;SDS011;8967;47.984;7.842;2022-12-18T02:40:09;30.40;;;12.20;;
17696;SDS011;8967;47.984;7.842;2022-12-18T02:42:39;23.70;;;11.60;;
17696;SDS011;8967;47.984;7.842;2022-12-18T02:45:08;23.73;;;11.07;;
17696;SDS011;8967;47.984;7.842;2022-12-18T02:47:37;29.03;;;12.07;;
17696;SDS011;8967;47.984;7.842;2022-12-18T02:50:07;26.63;;;11.63;;
17696;SDS011;8967;47.984;7.842;2022-12-18T02:52:42;27.67;;;11.43;;
17696;SDS011;8967;47.984;7.842;2022-12-18T02:55:19;28.40;;;11.13;;
17696;SDS011;8967;47.984;7.842;2022-12-18T02:58:03;24.30;;;10.90;;
17696;SDS011;8967;47.984;7.842;2022-12-18T03:00:37;30.10;;;11.77;;
17696;SDS011;8967;47.984;7.842;2022-12-18T03:03:09;29.53;;;12.07;;
17696;SDS011;8967;47.984;7.842;2022-12-18T03:05:43;29.57;;;12.17;;
17696;SDS011;8967;47.984;7.842;2022-12-18T03:08:18;29.70;;;11.70;;
17696;SDS011;8967;47.984;7.842;2022-12-18T03:10:51;27.20;;;11.07;;
17696;SDS011;8967;47.984;7.842;2022-12-18T03:13:25;31.23;;;13.37;;
17696;SDS011;8967;47.984;7.842;2022-12-18T03:15:57;31.83;;;11.80;;
17696;SDS011;8967;47.984;7.842;2022-12-18T03:18:27;28.67;;;12.10;;
17696;SDS011;8967;47.984;7.842;2022-12-18T03:21:00;31.53;;;12.60;;
17696;SDS011;8967;47.984;7.842;2022-12-18T03:23:34;33.23;;;12.87;;
17696;SDS011;8967;47.984;7.842;2022-12-18T03:26:07;35.23;;;13.03;;
17696;SDS011;8967;47.984;7.842;2022-12-18T03:28:42;36.83;;;13.63;;
17696;SDS011;8967;47.984;7.842;2022-12-18T03:31:13;34.13;;;13.10;;
17696;SDS011;8967;47.984;7.842;2022-12-18T03:33:44;33.33;;;12.60;;
17696;SDS011;8967;47.984;7.842;2022-12-18T03:36:17;30.90;;;11.60;;
17696;SDS011;8967;47.984;7.842;2022-12-18T03:38:44;33.33;;;13.40;;
17696;SDS011;8967;47.984;7.842;2022-12-18T03:41:14;29.00;;;12.90;;
17696;SDS011;8967;47.984;7.842;2022-12-18T03:44:05;29.47;;;12.10;;
17696;SDS011;8967;47.984;7.842;2022-12-18T03:46:41;29.23;;;10.73;;
17696;SDS011;8967;47.984;7.842;2022-12-18T03:49:15;32.93;;;12.90;;
17696;SDS011;8967;47.984;7.842;2022-12-18T03:51:52;32.23;;;11.70;;
17696;SDS011;8967;47.984;7.842;2022-12-18T03:54:23;28.17;;;11.27;;
17696;SDS011;8967;47.984;7.842;2022-12-18T03:57:06;32.60;;;13.33;;
17696;SDS011;8967;47.984;7.842;2022-12-18T03:59:37;30.50;;;11.50;;
17696;SDS011;8967;47.984;7.842;2022-12-18T04:02:07;32.57;;;12.10;;
17696;SDS011;8967;47.984;7.842;2022-12-18T04:04:36;21.33;;;9.80;;
17696;SDS011;8967;47.984;7.842;2022-12-18T04:07:06;23.83;;;11.20;;
17696;SDS011;8967;47.984;7.842;2022-12-18T04:09:36;26.10;;;10.13;;
17696;SDS011;8967;47.984;7.842;2022-12-18T04:12:09;25.93;;;10.20;;
17696;SDS011;8967;47.984;7.842;2022-12-18T04:14:36;27.77;;;9.73;;
17696;SDS011;8967;47.984;7.842;2022-12-18T04:17:07;27.70;;;10.70;;
17696;SDS011;8967;47.984;7.842;2022-12-18T04:19:34;32.37;;;11.00;;
17696;SDS011;8967;47.984;7.842;2022-12-18T04:22:02;24.43;;;10.40;;
17696;SDS011;8967;47.984;7.842;2022-12-18T04:24:34;30.70;;;11.27;;
17696;SDS011;8967;47.984;7.842;2022-12-18T04:27:08;28.40;;;12.13;;
17696;SDS011;8967;47.984;7.842;2022-12-18T04:29:43;24.50;;;10.73;;
17696;SDS011;8967;47.984;7.842;2022-12-18T04:32:13;24.77;;;10.00;;
17696;SDS011;8967;47.984;7.842;2022-12-18T04:34:42;29.90;;;11.00;;
17696;SDS011;8967;47.984;7.842;2022-12-18T04:37:10;21.10;;;9.17;;
17696;SDS011;8967;47.984;7.842;2022-12-18T04:39:38;18.87;;;9.40;;
17696;SDS011;8967;47.984;7.842;2022-12-18T04:42:11;22.00;;;10.03;;
17696;SDS011;8967;47.984;7.842;2022-12-18T04:44:38;22.17;;;10.40;;
17696;SDS011;8967;47.984;7.842;2022-12-18T04:47:06;21.50;;;9.70;;
17696;SDS011;8967;47.984;7.842;2022-12-18T04:49:33;25.30;;;9.63;;
17696;SDS011;8967;47.984;7.842;2022-12-18T04:52:00;23.87;;;10.57;;
17696;SDS011;8967;47.984;7.842;2022-12-18T04:54:27;20.33;;;9.77;;
17696;SDS011;8967;47.984;7.842;2022-12-18T04:56:56;26.67;;;10.07;;
17696;SDS011;8967;47.984;7.842;2022-12-18T04:59:23;26.50;;;9.67;;
17696;SDS011;8967;47.984;7.842;2022-12-18T05:01:50;23.03;;;10.27;;
17696;SDS011;8967;47.984;7.842;2022-12-18T05:04:18;31.73;;;9.70;;
17696;SDS011;8967;47.984;7.842;2022-12-18T05:06:45;21.77;;;10.37;;
17696;SDS011;8967;47.984;7.842;2022-12-18T05:09:12;24.07;;;8.93;;
17696;SDS011;8967;47.984;7.842;2022-12-18T05:11:39;22.70;;;10.07;;
17696;SDS011;8967;47.984;7.842;2022-12-18T05:14:06;24.83;;;9.97;;
17696;SDS011;8967;47.984;7.842;2022-12-18T05:16:33;21.73;;;10.60;;
17696;SDS011;8967;47.984;7.842;2022-12-18T05:19:00;20.77;;;9.83;;
17696;SDS011;8967;47.984;7.842;2022-12-18T05:21:28;22.20;;;10.20;;
17696;SDS011;8967;47.984;7.842;2022-12-18T05:23:56;22.33;;;8.77;;
17696;SDS011;8967;47.984;7.842;2022-12-18T05:26:23;17.33;;;8.53;;
17696;SDS011;8967;47.984;7.842;2022-12-18T05:28:49;23.23;;;9.43;;
17696;SDS011;8967;47.984;7.842;2022-12-18T05:31:16;25.03;;;10.23;;
17696;SDS011;8967;47.984;7.842;2022-12-18T05:33:43;16.37;;;8.67;;
17696;SDS011;8967;47.984;7.842;2022-12-18T05:36:13;22.20;;;9.07;;
17696;SDS011;8967;47.984;7.842;2022-12-18T05:38:42;22.10;;;9.23;;
17696;SDS011;8967;47.984;7.842;2022-12-18T05:41:11;20.67;;;9.03;;
17696;SDS011;8967;47.984;7.842;2022-12-18T05:43:38;16.50;;;7.83;;
17696;SDS011;8967;47.984;7.842;2022-12-18T05:46:07;21.50;;;9.43;;
17696;SDS011;8967;47.984;7.842;2022-12-18T05:48:35;22.37;;;8.70;;
17696;SDS011;8967;47.984;7.842;2022-12-18T05:51:05;19.47;;;8.67;;
17696;SDS011;8967;47.984;7.842;2022-12-18T05:53:33;22.20;;;9.17;;
17696;SDS011;8967;47.984;7.842;2022-12-18T05:56:03;19.50;;;7.77;;
17696;SDS011;8967;47.984;7.842;2022-12-18T05:58:31;19.67;;;8.07;;
17696;SDS011;8967;47.984;7.842;2022-12-18T06:01:06;20.67;;;8.17;;
17696;SDS011;8967;47.984;7.842;2022-12-18T06:03:34;21.77;;;8.73;;
17696;SDS011;8967;47.984;7.842;2022-12-18T06:06:02;16.37;;;7.67;;
17696;SDS011;8967;47.984;7.842;2022-12-18T06:08:29;18.80;;;7.90;;
17696;SDS011;8967;47.984;7.842;2022-12-18T06:10:56;18.33;;;7.47;;
17696;SDS011;8967;47.984;7.842;2022-12-18T06:13:24;15.70;;;7.20;;
17696;SDS011;8967;47.984;7.842;2022-12-18T06:15:51;16.37;;;6.93;;
17696;SDS011;8967;47.984;7.842;2022-12-18T06:18:18;19.13;;;6.80;;
17696;SDS011;8967;47.984;7.842;2022-12-18T06:20:45;17.70;;;6.57;;
17696;SDS011;8967;47.984;7.842;2022-12-18T06:23:20;17.97;;;6.97;;
17696;SDS011;8967;47.984;7.842;2022-12-18T06:25:46;19.20;;;6.90;;
17696;SDS011;8967;47.984;7.842;2022-12-18T06:28:13;18.60;;;6.70;;
17696;SDS011;8967;47.984;7.842;2022-12-18T06:30:44;22.13;;;7.50;;
17696;SDS011;8967;47.984;7.842;2022-12-18T06:33:11;16.87;;;7.10;;
17696;SDS011;8967;47.984;7.842;2022-12-18T06:35:38;17.53;;;6.73;;
17696;SDS011;8967;47.984;7.842;2022-12-18T06:38:05;15.53;;;7.77;;
17696;SDS011;8967;47.984;7.842;2022-12-18T06:40:32;20.87;;;7.77;;
17696;SDS011;8967;47.984;7.842;2022-12-18T06:42:59;12.57;;;6.90;;
17696;SDS011;8967;47.984;7.842;2022-12-18T06:45:26;15.17;;;6.90;;
17696;SDS011;8967;47.984;7.842;2022-12-18T06:47:55;15.37;;;6.83;;
17696;SDS011;8967;47.984;7.842;2022-12-18T06:50:21;14.67;;;6.77;;
17696;SDS011;8967;47.984;7.842;2022-12-18T06:52:48;16.43;;;6.10;;
17696;SDS011;8967;47.984;7.842;2022-12-18T06:55:15;18.80;;;7.83;;
17696;SDS011;8967;47.984;7.842;2022-12-18T06:57:42;17.23;;;7.57;;
17696;SDS011;8967;47.984;7.842;2022-12-18T07:00:13;18.47;;;6.67;;
17696;SDS011;8967;47.984;7.842;2022-12-18T07:02:40;18.47;;;7.53;;
17696;SDS011;8967;47.984;7.842;2022-12-18T07:05:08;17.20;;;7.40;;
17696;SDS011;8967;47.984;7.842;2022-12-18T07:07:35;14.80;;;6.87;;
17696;SDS011;8967;47.984;7.842;2022-12-18T07:10:05;20.57;;;8.50;;
17696;SDS011;8967;47.984;7.842;2022-12-18T07:12:32;17.27;;;6.77;;
17696;SDS011;8967;47.984;7.842;2022-12-18T07:14:59;16.43;;;6.57;;
17696;SDS011;8967;47.984;7.842;2022-12-18T07:17:26;13.67;;;6.10;;
17696;SDS011;8967;47.984;7.842;2022-12-18T07:19:54;16.70;;;7.33;;
17696;SDS011;8967;47.984;7.842;2022-12-18T07:22:25;15.70;;;6.80;;
17696;SDS011;8967;47.984;7.842;2022-12-18T07:24:52;15.80;;;6.30;;
17696;SDS011;8967;47.984;7.842;2022-12-18T07:27:20;13.87;;;5.97;;
17696;SDS011;8967;47.984;7.842;2022-12-18T07:29:47;13.03;;;6.30;;
17696;SDS011;8967;47.984;7.842;2022-12-18T07:32:14;15.67;;;6.20;;
17696;SDS011;8967;47.984;7.842;2022-12-18T07:34:41;18.40;;;7.40;;
17696;SDS011;8967;47.984;7.842;2022-12-18T07:37:08;23.37;;;7.77;;
17696;SDS011;8967;47.984;7.842;2022-12-18T07:39:36;16.37;;;7.47;;
17696;SDS011;8967;47.984;7.842;2022-12-18T07:42:05;19.30;;;9.27;;
17696;SDS011;8967;47.984;7.842;2022-12-18T07:44:50;19.57;;;7.87;;
17696;SDS011;8967;47.984;7.842;2022-12-18T07:47:19;16.17;;;7.40;;
17696;SDS011;8967;47.984;7.842;2022-12-18T07:49:48;14.13;;;6.93;;
17696;SDS011;8967;47.984;7.842;2022-12-18T07:52:17;14.10;;;6.77;;
17696;SDS011;8967;47.984;7.842;2022-12-18T07:54:46;18.70;;;7.80;;
17696;SDS011;8967;47.984;7.842;2022-12-18T07:57:14;20.90;;;9.07;;
17696;SDS011;8967;47.984;7.842;2022-12-18T07:59:41;31.73;;;12.43;;
17696;SDS011;8967;47.984;7.842;2022-12-18T08:02:08;32.97;;;13.13;;
17696;SDS011;8967;47.984;7.842;2022-12-18T08:04:35;26.23;;;11.67;;
17696;SDS011;8967;47.984;7.842;2022-12-18T08:07:02;27.50;;;11.60;;
17696;SDS011;8967;47.984;7.842;2022-12-18T08:09:29;22.50;;;10.50;;
17696;SDS011;8967;47.984;7.842;2022-12-18T08:11:57;20.00;;;8.70;;
17696;SDS011;8967;47.984;7.842;2022-12-18T08:14:24;20.43;;;9.13;;
17696;SDS011;8967;47.984;7.842;2022-12-18T08:16:51;23.93;;;8.07;;
17696;SDS011;8967;47.984;7.842;2022-12-18T08:19:18;23.47;;;10.03;;
17696;SDS011;8967;47.984;7.842;2022-12-18T08:21:47;22.93;;;10.10;;
17696;SDS011;8967;47.984;7.842;2022-12-18T08:24:14;22.07;;;9.60;;
17696;SDS011;8967;47.984;7.842;2022-12-18T08:26:41;21.57;;;10.07;;
17696;SDS011;8967;47.984;7.842;2022-12-18T08:29:09;21.17;;;9.60;;
17696;SDS011;8967;47.984;7.842;2022-12-18T08:31:36;22.43;;;9.70;;
17696;SDS011;8967;47.984;7.842;2022-12-18T08:34:03;23.93;;;9.57;;
17696;SDS011;8967;47.984;7.842;2022-12-18T08:36:30;18.43;;;9.27;;
17696;SDS011;8967;47.984;7.842;2022-12-18T08:38:57;20.97;;;8.97;;
17696;SDS011;8967;47.984;7.842;2022-12-18T08:41:24;16.90;;;7.90;;
17696;SDS011;8967;47.984;7.842;2022-12-18T08:43:51;16.30;;;7.30;;
17696;SDS011;8967;47.984;7.842;2022-12-18T08:46:37;16.07;;;8.30;;
17696;SDS011;8967;47.984;7.842;2022-12-18T08:49:06;15.37;;;7.97;;
17696;SDS011;8967;47.984;7.842;2022-12-18T08:51:33;16.93;;;7.43;;
17696;SDS011;8967;47.984;7.842;2022-12-18T08:54:01;21.73;;;8.60;;
17696;SDS011;8967;47.984;7.842;2022-12-18T08:56:28;17.57;;;8.17;;
17696;SDS011;8967;47.984;7.842;2022-12-18T08:58:56;26.73;;;10.27;;
17696;SDS011;8967;47.984;7.842;2022-12-18T09:01:23;21.27;;;9.97;;
17696;SDS011;8967;47.984;7.842;2022-12-18T09:03:51;23.93;;;9.63;;
17696;SDS011;8967;47.984;7.842;2022-12-18T09:06:19;22.67;;;9.83;;
17696;SDS011;8967;47.984;7.842;2022-12-18T09:08:47;26.13;;;11.17;;
17696;SDS011;8967;47.984;7.842;2022-12-18T09:11:15;29.37;;;11.80;;
17696;SDS011;8967;47.984;7.842;2022-12-18T09:13:46;23.47;;;10.43;;
17696;SDS011;8967;47.984;7.842;2022-12-18T09:16:13;28.70;;;10.60;;
17696;SDS011;8967;47.984;7.842;2022-12-18T09:18:40;26.43;;;10.83;;
17696;SDS011;8967;47.984;7.842;2022-12-18T09:21:09;27.10;;;11.70;;
17696;SDS011;8967;47.984;7.842;2022-12-18T09:23:37;24.77;;;10.20;;
17696;SDS011;8967;47.984;7.842;2022-12-18T09:26:04;28.97;;;11.33;;
17696;SDS011;8967;47.984;7.842;2022-12-18T09:28:31;32.13;;;11.80;;
17696;SDS011;8967;47.984;7.842;2022-12-18T09:30:59;28.57;;;12.23;;
17696;SDS011;8967;47.984;7.842;2022-12-18T09:33:31;26.67;;;11.07;;
17696;SDS011;8967;47.984;7.842;2022-12-18T09:36:00;23.20;;;11.00;;
17696;SDS011;8967;47.984;7.842;2022-12-18T09:38:32;25.83;;;10.60;;
17696;SDS011;8967;47.984;7.842;2022-12-18T09:41:00;25.13;;;10.87;;
17696;SDS011;8967;47.984;7.842;2022-12-18T09:43:34;26.53;;;10.77;;
17696;SDS011;8967;47.984;7.842;2022-12-18T09:46:04;23.77;;;10.83;;
17696;SDS011;8967;47.984;7.842;2022-12-18T09:48:35;23.90;;;9.83;;
17696;SDS011;8967;47.984;7.842;2022-12-18T09:51:05;25.30;;;10.60;;
17696;SDS011;8967;47.984;7.842;2022-12-18T09:53:41;25.23;;;11.10;;
17696;SDS011;8967;47.984;7.842;2022-12-18T09:56:12;31.33;;;11.63;;
17696;SDS011;8967;47.984;7.842;2022-12-18T09:58:47;23.70;;;11.17;;
17696;SDS011;8967;47.984;7.842;2022-12-18T10:01:21;26.10;;;11.60;;
17696;SDS011;8967;47.984;7.842;2022-12-18T10:03:49;26.97;;;11.97;;
17696;SDS011;8967;47.984;7.842;2022-12-18T10:06:18;34.57;;;12.63;;
17696;SDS011;8967;47.984;7.842;2022-12-18T10:08:53;33.03;;;12.33;;
17696;SDS011;8967;47.984;7.842;2022-12-18T10:11:31;28.80;;;13.73;;
17696;SDS011;8967;47.984;7.842;2022-12-18T10:14:08;28.27;;;12.10;;
17696;SDS011;8967;47.984;7.842;2022-12-18T10:16:43;30.07;;;12.23;;
17696;SDS011;8967;47.984;7.842;2022-12-18T10:19:24;28.60;;;12.73;;
17696;SDS011;8967;47.984;7.842;2022-12-18T10:22:02;27.63;;;13.30;;
17696;SDS011;8967;47.984;7.842;2022-12-18T10:24:41;26.87;;;12.57;;
17696;SDS011;8967;47.984;7.842;2022-12-18T10:27:14;27.23;;;13.20;;
17696;SDS011;8967;47.984;7.842;2022-12-18T10:29:43;32.27;;;13.07;;
17696;SDS011;8967;47.984;7.842;2022-12-18T10:32:13;32.00;;;12.80;;
17696;SDS011;8967;47.984;7.842;2022-12-18T10:34:44;31.37;;;11.87;;
17696;SDS011;8967;47.984;7.842;2022-12-18T10:37:13;29.37;;;12.57;;
17696;SDS011;8967;47.984;7.842;2022-12-18T10:39:45;26.80;;;11.90;;
17696;SDS011;8967;47.984;7.842;2022-12-18T10:42:16;26.10;;;12.13;;
17696;SDS011;8967;47.984;7.842;2022-12-18T10:44:44;25.10;;;11.00;;
17696;SDS011;8967;47.984;7.842;2022-12-18T10:47:14;22.80;;;10.77;;
17696;SDS011;8967;47.984;7.842;2022-12-18T10:49:47;25.10;;;10.87;;
17696;SDS011;8967;47.984;7.842;2022-12-18T10:52:18;26.63;;;11.20;;
17696;SDS011;8967;47.984;7.842;2022-12-18T10:54:51;23.23;;;11.07;;
17696;SDS011;8967;47.984;7.842;2022-12-18T10:57:29;18.33;;;9.67;;
17696;SDS011;8967;47.984;7.842;2022-12-18T10:59:59;20.53;;;9.97;;
17696;SDS011;8967;47.984;7.842;2022-12-18T11:02:46;26.00;;;9.90;;
17696;SDS011;8967;47.984;7.842;2022-12-18T11:05:22;24.33;;;11.03;;
17696;SDS011;8967;47.984;7.842;2022-12-18T11:07:51;22.57;;;11.23;;
17696;SDS011;8967;47.984;7.842;2022-12-18T11:10:21;25.53;;;11.43;;
17696;SDS011;8967;47.984;7.842;2022-12-18T11:12:51;27.80;;;12.47;;
17696;SDS011;8967;47.984;7.842;2022-12-18T11:15:19;33.33;;;13.13;;
17696;SDS011;8967;47.984;7.842;2022-12-18T11:17:49;33.87;;;14.57;;
17696;SDS011;8967;47.984;7.842;2022-12-18T11:20:21;33.43;;;14.07;;
17696;SDS011;8967;47.984;7.842;2022-12-18T11:22:57;31.13;;;13.00;;
17696;SDS011;8967;47.984;7.842;2022-12-18T11:25:27;33.93;;;14.10;;
17696;SDS011;8967;47.984;7.842;2022-12-18T11:27:55;41.17;;;16.13;;
17696;SDS011;8967;47.984;7.842;2022-12-18T11:30:24;32.00;;;15.07;;
17696;SDS011;8967;47.984;7.842;2022-12-18T11:32:54;39.07;;;15.80;;
17696;SDS011;8967;47.984;7.842;2022-12-18T11:35:28;39.73;;;15.93;;
17696;SDS011;8967;47.984;7.842;2022-12-18T11:38:02;39.97;;;16.73;;
17696;SDS011;8967;47.984;7.842;2022-12-18T11:40:42;39.20;;;16.33;;
17696;SDS011;8967;47.984;7.842;2022-12-18T11:43:14;35.43;;;16.27;;
17696;SDS011;8967;47.984;7.842;2022-12-18T11:45:47;31.17;;;15.10;;
17696;SDS011;8967;47.984;7.842;2022-12-18T11:48:21;38.00;;;16.03;;
17696;SDS011;8967;47.984;7.842;2022-12-18T11:50:52;38.13;;;16.63;;
17696;SDS011;8967;47.984;7.842;2022-12-18T11:53:21;37.80;;;17.07;;
17696;SDS011;8967;47.984;7.842;2022-12-18T11:55:54;39.10;;;15.67;;
17696;SDS011;8967;47.984;7.842;2022-12-18T11:58:32;36.23;;;16.63;;
17696;SDS011;8967;47.984;7.842;2022-12-18T12:01:11;35.87;;;15.57;;
17696;SDS011;8967;47.984;7.842;2022-12-18T12:06:52;35.40;;;15.63;;
17696;SDS011;8967;47.984;7.842;2022-12-18T12:09:26;36.73;;;15.60;;
17696;SDS011;8967;47.984;7.842;2022-12-18T12:12:06;34.27;;;15.03;;
17696;SDS011;8967;47.984;7.842;2022-12-18T12:14:47;33.97;;;14.33;;
17696;SDS011;8967;47.984;7.842;2022-12-18T12:17:20;35.23;;;15.03;;
17696;SDS011;8967;47.984;7.842;2022-12-18T12:19:57;34.67;;;15.00;;
17696;SDS011;8967;47.984;7.842;2022-12-18T12:22:32;31.43;;;14.57;;
17696;SDS011;8967;47.984;7.842;2022-12-18T12:25:12;31.20;;;14.20;;
17696;SDS011;8967;47.984;7.842;2022-12-18T12:27:57;35.53;;;15.67;;
17696;SDS011;8967;47.984;7.842;2022-12-18T12:30:35;36.13;;;15.57;;
17696;SDS011;8967;47.984;7.842;2022-12-18T12:33:15;34.33;;;15.33;;
17696;SDS011;8967;47.984;7.842;2022-12-18T12:35:55;35.13;;;15.17;;
17696;SDS011;8967;47.984;7.842;2022-12-18T12:38:31;37.10;;;15.40;;
17696;SDS011;8967;47.984;7.842;2022-12-18T12:41:03;36.30;;;15.67;;
17696;SDS011;8967;47.984;7.842;2022-12-18T12:43:54;35.53;;;15.33;;
17696;SDS011;8967;47.984;7.842;2022-12-18T12:46:22;42.93;;;17.13;;
17696;SDS011;8967;47.984;7.842;2022-12-18T12:48:51;36.30;;;16.17;;
17696;SDS011;8967;47.984;7.842;2022-12-18T12:51:22;29.87;;;14.60;;
17696;SDS011;8967;47.984;7.842;2022-12-18T12:53:52;36.60;;;15.20;;
17696;SDS011;8967;47.984;7.842;2022-12-18T12:56:21;37.77;;;14.93;;
17696;SDS011;8967;47.984;7.842;2022-12-18T12:58:57;35.80;;;15.83;;
17696;SDS011;8967;47.984;7.842;2022-12-18T13:01:30;40.37;;;16.30;;
17696;SDS011;8967;47.984;7.842;2022-12-18T13:04:08;37.07;;;16.13;;
17696;SDS011;8967;47.984;7.842;2022-12-18T13:06:47;36.23;;;15.57;;
17696;SDS011;8967;47.984;7.842;2022-12-18T13:09:20;30.50;;;14.77;;
17696;SDS011;8967;47.984;7.842;2022-12-18T13:11:47;36.43;;;15.00;;
17696;SDS011;8967;47.984;7.842;2022-12-18T13:14:34;37.57;;;16.47;;
17696;SDS011;8967;47.984;7.842;2022-12-18T13:20:03;37.70;;;16.43;;
17696;SDS011;8967;47.984;7.842;2022-12-18T13:22:33;36.37;;;14.87;;
17696;SDS011;8967;47.984;7.842;2022-12-18T13:25:02;32.97;;;15.20;;
17696;SDS011;8967;47.984;7.842;2022-12-18T13:27:45;30.57;;;13.80;;
17696;SDS011;8967;47.984;7.842;2022-12-18T13:30:42;30.63;;;14.47;;
17696;SDS011;8967;47.984;7.842;2022-12-18T13:33:34;36.60;;;15.57;;
17696;SDS011;8967;47.984;7.842;2022-12-18T13:36:25;38.33;;;15.47;;
17696;SDS011;8967;47.984;7.842;2022-12-18T13:39:09;35.47;;;15.10;;
17696;SDS011;8967;47.984;7.842;2022-12-18T13:41:47;28.43;;;13.70;;
17696;SDS011;8967;47.984;7.842;2022-12-18T13:44:21;31.90;;;14.53;;
17696;SDS011;8967;47.984;7.842;2022-12-18T13:46:55;28.57;;;13.07;;
17696;SDS011;8967;47.984;7.842;2022-12-18T13:49:23;32.70;;;12.80;;
17696;SDS011;8967;47.984;7.842;2022-12-18T13:51:54;30.67;;;13.47;;
17696;SDS011;8967;47.984;7.842;2022-12-18T13:54:24;30.37;;;13.00;;
17696;SDS011;8967;47.984;7.842;2022-12-18T13:56:56;27.23;;;12.63;;
17696;SDS011;8967;47.984;7.842;2022-12-18T13:59:24;23.57;;;10.70;;
17696;SDS011;8967;47.984;7.842;2022-12-18T14:01:53;22.43;;;10.87;;
17696;SDS011;8967;47.984;7.842;2022-12-18T14:04:25;18.97;;;9.80;;
17696;SDS011;8967;47.984;7.842;2022-12-18T14:06:55;23.70;;;10.30;;
17696;SDS011;8967;47.984;7.842;2022-12-18T14:09:26;25.77;;;10.87;;
17696;SDS011;8967;47.984;7.842;2022-12-18T14:11:55;20.70;;;9.97;;
17696;SDS011;8967;47.984;7.842;2022-12-18T14:14:37;25.53;;;11.13;;
17696;SDS011;8967;47.984;7.842;2022-12-18T14:17:09;21.40;;;10.47;;
17696;SDS011;8967;47.984;7.842;2022-12-18T14:19:43;25.47;;;10.83;;
17696;SDS011;8967;47.984;7.842;2022-12-18T14:22:16;26.37;;;12.50;;
17696;SDS011;8967;47.984;7.842;2022-12-18T14:24:45;30.87;;;12.03;;
17696;SDS011;8967;47.984;7.842;2022-12-18T14:27:20;26.00;;;11.37;;
17696;SDS011;8967;47.984;7.842;2022-12-18T14:29:51;23.73;;;11.47;;
17696;SDS011;8967;47.984;7.842;2022-12-18T14:32:20;23.93;;;10.93;;
17696;SDS011;8967;47.984;7.842;2022-12-18T14:34:48;23.43;;;11.07;;
17696;SDS011;8967;47.984;7.842;2022-12-18T14:37:16;26.67;;;12.47;;
17696;SDS011;8967;47.984;7.842;2022-12-18T14:39:53;27.33;;;11.70;;
17696;SDS011;8967;47.984;7.842;2022-12-18T14:42:23;25.10;;;11.63;;
17696;SDS011;8967;47.984;7.842;2022-12-18T14:47:55;22.27;;;11.00;;
17696;SDS011;8967;47.984;7.842;2022-12-18T14:50:22;21.53;;;10.80;;
17696;SDS011;8967;47.984;7.842;2022-12-18T14:52:49;23.10;;;9.90;;
17696;SDS011;8967;47.984;7.842;2022-12-18T14:55:16;24.13;;;10.40;;
17696;SDS011;8967;47.984;7.842;2022-12-18T14:57:44;19.33;;;9.63;;
17696;SDS011;8967;47.984;7.842;2022-12-18T15:00:15;19.43;;;9.87;;
17696;SDS011;8967;47.984;7.842;2022-12-18T15:02:44;23.20;;;9.80;;
17696;SDS011;8967;47.984;7.842;2022-12-18T15:05:18;20.50;;;9.70;;
17696;SDS011;8967;47.984;7.842;2022-12-18T15:07:47;22.73;;;10.73;;
17696;SDS011;8967;47.984;7.842;2022-12-18T15:10:16;27.77;;;12.87;;